Time;durP1;ratioP1;P1;durP2;ratioP2;P2;SDS_P1;SDS_P2;PMS_P1;PMS_P2;Temp;Humidity;BMP_temperature;BMP_pressure;BME280_temperature;BME280_humidity;BME280_pressure;Samples;Min_cycle;Max_cycle;Signal;HPM_P1;HPM_P2
2022/01/25 00:27:47;;;;;;;24.80;19.75;;;7.20;99.90;;;;;;4869791;29;20213;-62
2022/01/25 00:33:09;;;;;;;23.13;17.73;;;7.10;99.90;;;;;;4878635;29;20235;-61
2022/01/25 00:35:40;;;;;;;21.95;16.90;;;7.00;99.90;;;;;;4883538;29;20220;-61
2022/01/25 00:38:11;;;;;;;27.48;17.80;;;6.80;99.90;;;;;;4876682;29;20267;-62
2022/01/25 00:40:43;;;;;;;20.73;18.25;;;6.60;99.90;;;;;;4886737;29;20239;-61
2022/01/25 00:43:14;;;;;;;19.88;17.10;;;6.50;99.90;;;;;;4887227;29;20211;-62
2022/01/25 00:45:45;;;;;;;20.92;16.75;;;6.30;99.90;;;;;;4886641;29;20222;-64
2022/01/25 00:48:19;;;;;;;21.13;17.63;;;6.30;99.90;;;;;;4887724;29;20509;-61
2022/01/25 00:50:51;;;;;;;23.77;17.85;;;6.30;99.90;;;;;;4884333;29;20235;-61
2022/01/25 00:56:11;;;;;;;23.40;18.23;;;6.00;99.90;;;;;;4877986;29;20209;-62
2022/01/25 00:59:06;;;;;;;23.55;18.90;;;6.10;99.90;;;;;;4884218;29;20204;-62
2022/01/25 01:01:39;;;;;;;21.15;18.75;;;5.90;99.90;;;;;;4885565;29;20242;-62
2022/01/25 01:04:11;;;;;;;21.60;19.00;;;5.80;99.90;;;;;;4884430;29;20258;-62
2022/01/25 01:06:43;;;;;;;25.17;19.17;;;5.80;99.90;;;;;;4905627;29;20218;-63
2022/01/25 01:09:16;;;;;;;25.00;19.95;;;5.80;99.90;;;;;;4890104;29;20211;-62
2022/01/25 01:11:57;;;;;;;24.65;18.45;;;5.80;99.90;;;;;;4904794;29;20219;-63
2022/01/25 01:14:49;;;;;;;22.55;18.77;;;5.60;99.90;;;;;;4901057;29;20239;-61
2022/01/25 01:29:06;;;;;;;23.63;17.95;;;5.40;99.90;;;;;;4903566;29;20203;-63
2022/01/25 01:31:53;;;;;;;23.70;18.58;;;5.20;99.90;;;;;;4899077;29;20218;-62
2022/01/25 01:43:01;;;;;;;24.70;19.05;;;4.80;99.90;;;;;;4898145;29;20241;-64
2022/01/25 01:45:48;;;;;;;25.15;19.63;;;4.70;99.90;;;;;;4905176;29;20399;-64
2022/01/25 01:48:28;;;;;;;24.05;19.05;;;4.70;99.90;;;;;;4895344;29;20219;-62
2022/01/25 01:51:05;;;;;;;24.77;19.33;;;4.60;99.90;;;;;;4911181;29;20341;-62
2022/01/25 01:53:37;;;;;;;23.50;18.25;;;4.60;99.90;;;;;;4913751;29;20202;-62
2022/01/25 01:56:08;;;;;;;27.33;19.92;;;4.50;99.90;;;;;;4906780;29;20199;-63
2022/01/25 01:58:41;;;;;;;24.48;20.45;;;4.50;99.90;;;;;;4918417;29;20215;-62
2022/01/25 02:01:17;;;;;;;28.60;21.50;;;4.50;99.90;;;;;;4923300;29;20222;-62
2022/01/25 02:03:48;;;;;;;28.85;20.85;;;4.60;99.90;;;;;;4923594;29;20214;-63
2022/01/25 02:06:19;;;;;;;27.88;21.20;;;4.50;99.90;;;;;;4923294;29;20600;-62
2022/01/25 02:08:50;;;;;;;25.52;20.23;;;4.60;99.90;;;;;;4910700;29;20207;-62
2022/01/25 02:11:21;;;;;;;26.83;19.95;;;4.40;99.90;;;;;;4924626;29;20211;-64
2022/01/25 02:13:52;;;;;;;28.17;20.38;;;4.30;99.90;;;;;;4920407;29;20510;-63
2022/01/25 02:16:39;;;;;;;25.15;19.13;;;4.30;99.90;;;;;;4919323;29;20592;-64
2022/01/25 02:24:49;;;;;;;24.85;21.17;;;4.10;99.90;;;;;;4900075;29;20549;-63
2022/01/25 02:27:20;;;;;;;22.90;19.67;;;4.10;99.90;;;;;;4910518;29;20591;-63
2022/01/25 02:29:52;;;;;;;29.35;21.60;;;4.00;99.90;;;;;;4920844;29;20216;-62
2022/01/25 02:32:22;;;;;;;26.52;22.48;;;4.00;99.90;;;;;;4914771;29;20207;-66
2022/01/25 02:34:53;;;;;;;30.45;22.40;;;4.00;99.90;;;;;;4920339;29;20199;-62
2022/01/25 02:37:26;;;;;;;23.98;18.95;;;4.00;99.90;;;;;;4918747;29;20221;-62
2022/01/25 02:40:00;;;;;;;28.75;21.33;;;4.00;99.90;;;;;;4920141;29;20543;-63
2022/01/25 02:42:31;;;;;;;28.33;22.17;;;3.90;99.90;;;;;;4925322;29;20596;-63
2022/01/25 02:45:02;;;;;;;27.73;21.33;;;3.90;99.90;;;;;;4926455;29;20305;-63
2022/01/25 02:50:20;;;;;;;28.27;21.30;;;3.90;99.90;;;;;;4915588;29;20235;-62
2022/01/25 02:52:52;;;;;;;30.23;21.85;;;3.80;99.90;;;;;;4927822;29;20205;-66
2022/01/25 02:55:23;;;;;;;29.13;22.67;;;3.80;99.90;;;;;;4918169;29;20230;-63
2022/01/25 02:57:54;;;;;;;36.25;23.80;;;3.90;99.90;;;;;;4927026;29;20206;-65
2022/01/25 03:00:25;;;;;;;38.85;26.58;;;3.80;99.90;;;;;;4926074;29;20208;-65
2022/01/25 03:02:56;;;;;;;37.45;30.17;;;3.80;99.90;;;;;;4919640;29;20226;-63
2022/01/25 03:05:28;;;;;;;37.17;28.17;;;3.70;99.90;;;;;;4924070;29;20229;-63
2022/01/25 03:08:00;;;;;;;39.63;29.80;;;3.60;99.90;;;;;;4925085;29;20207;-62
2022/01/25 03:10:40;;;;;;;39.33;29.77;;;3.50;99.90;;;;;;4924767;29;20213;-63
2022/01/25 03:13:16;;;;;;;34.33;25.98;;;3.50;99.90;;;;;;4923579;29;20302;-63
2022/01/25 03:15:58;;;;;;;101.00;42.92;;;3.50;99.90;;;;;;4917907;29;20227;-63
2022/01/25 03:18:43;;;;;;;31.80;23.83;;;3.50;99.90;;;;;;4917191;29;20644;-64
2022/01/25 03:21:22;;;;;;;51.83;29.55;;;3.50;99.90;;;;;;4913633;29;20218;-63
2022/01/25 03:23:55;;;;;;;33.63;24.08;;;3.50;99.90;;;;;;4919629;29;20215;-64
2022/01/25 03:26:27;;;;;;;32.83;23.67;;;3.50;99.90;;;;;;4910588;29;20203;-63
2022/01/25 03:28:58;;;;;;;33.00;25.48;;;3.40;99.90;;;;;;4924631;29;20210;-63
2022/01/25 03:31:29;;;;;;;28.08;23.67;;;3.30;99.90;;;;;;4926162;29;20213;-63
2022/01/25 03:34:00;;;;;;;27.52;20.58;;;3.20;99.90;;;;;;4919326;29;20211;-63
2022/01/25 03:36:31;;;;;;;30.70;24.27;;;3.20;99.90;;;;;;4916042;29;20207;-63
2022/01/25 03:39:04;;;;;;;28.73;21.58;;;3.30;99.90;;;;;;4913673;29;20226;-62
2022/01/25 03:41:36;;;;;;;28.73;21.38;;;3.20;99.90;;;;;;4919357;29;20214;-62
2022/01/25 03:44:10;;;;;;;28.45;21.00;;;3.20;99.90;;;;;;4920810;29;20213;-63
2022/01/25 03:46:54;;;;;;;26.58;20.80;;;3.20;99.90;;;;;;4923588;29;20238;-63
2022/01/25 03:52:13;;;;;;;1622.30;305.63;;;3.30;99.90;;;;;;4920528;29;20568;-64
2022/01/25 03:54:48;;;;;;;25.17;19.48;;;3.30;99.90;;;;;;4923675;29;20632;-64
2022/01/25 03:57:19;;;;;;;20.77;17.90;;;3.30;99.90;;;;;;4917117;29;20538;-63
2022/01/25 03:59:50;;;;;;;21.30;16.80;;;3.20;99.90;;;;;;4916018;29;20239;-63
2022/01/25 04:02:22;;;;;;;19.23;15.73;;;3.20;99.90;;;;;;4922124;29;20254;-64
2022/01/25 04:04:53;;;;;;;19.63;14.55;;;3.10;99.90;;;;;;4912163;29;20235;-63
2022/01/25 04:07:30;;;;;;;19.92;15.65;;;3.10;99.90;;;;;;4927673;29;20659;-63
2022/01/25 04:10:02;;;;;;;18.17;13.88;;;3.10;99.90;;;;;;4918672;29;20565;-65
2022/01/25 04:12:33;;;;;;;16.83;14.10;;;3.10;99.90;;;;;;4911225;29;20203;-63
2022/01/25 04:15:05;;;;;;;18.70;15.07;;;3.00;99.90;;;;;;4915334;29;20206;-64
2022/01/25 04:17:36;;;;;;;17.85;13.95;;;3.00;99.90;;;;;;4909783;29;20231;-63
2022/01/25 04:20:16;;;;;;;19.70;15.20;;;3.00;99.90;;;;;;4911820;29;20207;-62
2022/01/25 04:25:36;;;;;;;21.83;15.80;;;3.00;99.90;;;;;;4919003;29;20217;-61
2022/01/25 04:28:07;;;;;;;18.95;14.65;;;3.00;99.90;;;;;;4926610;29;20316;-61
2022/01/25 04:30:37;;;;;;;18.77;14.55;;;2.90;99.90;;;;;;4923534;29;20290;-61
2022/01/25 04:33:18;;;;;;;18.75;14.80;;;3.00;99.90;;;;;;4920209;29;20246;-61
2022/01/25 04:35:59;;;;;;;21.00;14.93;;;2.90;99.90;;;;;;4926264;29;20207;-60
2022/01/25 04:50:33;;;;;;;15.27;12.90;;;2.80;99.90;;;;;;4890825;29;20255;-61
2022/01/25 04:53:12;;;;;;;16.08;12.95;;;2.80;99.90;;;;;;4896526;29;20298;-63
2022/01/25 04:55:49;;;;;;;15.65;12.15;;;2.80;99.90;;;;;;4890580;29;20279;-61
2022/01/25 04:58:28;;;;;;;16.50;12.32;;;2.80;99.90;;;;;;4885687;29;20215;-62
2022/01/25 05:00:59;;;;;;;18.67;13.40;;;2.80;99.90;;;;;;4893837;29;20200;-61
2022/01/25 05:03:47;;;;;;;18.73;13.07;;;2.70;99.90;;;;;;4895431;29;20254;-62
2022/01/25 05:07:18;;;;;;;15.50;11.63;;;2.70;99.90;;;;;;4892093;29;20218;-68
2022/01/25 05:10:07;;;;;;;16.85;12.43;;;2.60;99.90;;;;;;4886731;29;20196;-63
2022/01/25 05:12:44;;;;;;;16.20;12.68;;;2.60;99.90;;;;;;4886371;29;20217;-63
2022/01/25 05:16:02;;;;;;;20.08;12.95;;;2.60;99.90;;;;;;4882815;29;20312;-62
2022/01/25 05:18:41;;;;;;;18.42;14.30;;;2.60;99.90;;;;;;4915312;29;20225;-62
2022/01/25 05:24:00;;;;;;;15.23;12.77;;;2.60;99.90;;;;;;4922037;29;20240;-62
2022/01/25 05:26:31;;;;;;;15.68;12.80;;;2.60;99.90;;;;;;4919696;29;20246;-61
2022/01/25 05:29:02;;;;;;;17.20;12.80;;;2.60;99.90;;;;;;4908880;29;20845;-60
2022/01/25 05:31:35;;;;;;;16.65;13.65;;;2.50;99.90;;;;;;4916486;29;20196;-60
2022/01/25 05:34:08;;;;;;;19.80;13.77;;;2.50;99.90;;;;;;4915839;29;20214;-60
2022/01/25 05:36:42;;;;;;;16.23;12.90;;;2.40;99.90;;;;;;4924631;29;20206;-61
2022/01/25 05:39:17;;;;;;;19.08;13.60;;;2.40;99.90;;;;;;4920274;29;20236;-62
2022/01/25 05:41:56;;;;;;;26.20;17.60;;;2.40;99.90;;;;;;4923902;29;20215;-62
2022/01/25 05:44:42;;;;;;;27.00;20.52;;;2.40;99.90;;;;;;4918233;29;20243;-62
2022/01/25 05:47:15;;;;;;;26.08;20.20;;;2.40;99.90;;;;;;4923199;29;20222;-61
2022/01/25 05:49:51;;;;;;;26.20;20.15;;;2.30;99.90;;;;;;4920951;29;20238;-62
2022/01/25 05:52:22;;;;;;;27.95;21.13;;;2.30;99.90;;;;;;4920369;29;20277;-61
2022/01/25 05:54:52;;;;;;;29.55;22.90;;;2.20;99.90;;;;;;4921998;29;20293;-62
2022/01/25 05:57:23;;;;;;;29.45;21.60;;;2.00;99.90;;;;;;4925685;29;20222;-61
2022/01/25 05:59:54;;;;;;;30.02;19.48;;;1.90;99.90;;;;;;4913662;29;20214;-61
2022/01/25 06:02:30;;;;;;;25.70;18.33;;;1.80;99.90;;;;;;4910304;29;20222;-62
2022/01/25 06:05:00;;;;;;;38.42;19.42;;;1.80;99.90;;;;;;4913920;29;20224;-61
2022/01/25 06:07:31;;;;;;;41.80;19.52;;;1.80;99.90;;;;;;4911025;29;20191;-61
2022/01/25 06:10:02;;;;;;;27.90;17.95;;;1.70;99.90;;;;;;4914908;29;20207;-61
2022/01/25 06:12:33;;;;;;;48.72;19.73;;;1.70;99.90;;;;;;4928540;29;20210;-61
2022/01/25 06:15:04;;;;;;;40.58;19.33;;;1.70;99.90;;;;;;4925107;29;20208;-61
2022/01/25 06:17:37;;;;;;;42.33;17.65;;;1.70;99.90;;;;;;4926856;29;20221;-62
2022/01/25 06:20:11;;;;;;;23.98;15.73;;;1.70;99.90;;;;;;4920090;29;20199;-61
2022/01/25 06:22:42;;;;;;;25.33;16.17;;;1.70;99.90;;;;;;4926931;29;20217;-61
2022/01/25 06:25:14;;;;;;;21.58;14.93;;;1.70;99.90;;;;;;4923975;29;20249;-61
2022/01/25 06:27:46;;;;;;;18.52;15.13;;;1.70;99.90;;;;;;4924031;29;20233;-61
2022/01/25 06:30:19;;;;;;;19.15;14.52;;;1.70;99.90;;;;;;4925533;29;20214;-61
2022/01/25 06:32:52;;;;;;;18.83;14.20;;;1.70;99.90;;;;;;4914734;29;20204;-61
2022/01/25 06:35:22;;;;;;;19.27;11.98;;;1.70;99.90;;;;;;4928466;29;20277;-61
2022/01/25 06:37:53;;;;;;;24.50;13.55;;;1.70;99.90;;;;;;4921984;29;20219;-61
2022/01/25 06:40:25;;;;;;;45.50;13.75;;;1.70;99.90;;;;;;4916021;29;20203;-61
2022/01/25 06:42:55;;;;;;;25.20;13.20;;;1.70;99.90;;;;;;4922079;29;20525;-61
2022/01/25 06:45:27;;;;;;;25.02;14.00;;;1.70;99.90;;;;;;4920304;29;20245;-61
2022/01/25 06:48:00;;;;;;;41.70;14.10;;;1.70;99.90;;;;;;4919263;29;20533;-61
2022/01/25 06:50:30;;;;;;;52.13;16.00;;;1.70;99.90;;;;;;4926383;29;20237;-61
2022/01/25 06:53:01;;;;;;;55.08;18.13;;;1.80;99.90;;;;;;4918954;29;20217;-61
2022/01/25 06:55:41;;;;;;;28.80;13.05;;;1.80;99.90;;;;;;4920346;29;20222;-61
2022/01/25 06:58:12;;;;;;;48.92;15.63;;;1.70;99.90;;;;;;4926983;29;20324;-61
2022/01/25 07:00:44;;;;;;;46.22;15.50;;;1.80;99.90;;;;;;4915078;29;20544;-61
2022/01/25 07:03:16;;;;;;;63.08;19.17;;;1.70;99.90;;;;;;4927316;29;20201;-61
2022/01/25 07:05:47;;;;;;;60.38;18.60;;;1.80;99.90;;;;;;4924918;29;20321;-61
2022/01/25 07:08:18;;;;;;;73.72;19.77;;;1.90;99.90;;;;;;4918356;29;20222;-61
2022/01/25 07:10:53;;;;;;;33.13;14.32;;;1.90;99.90;;;;;;4914130;29;20229;-61
2022/01/25 07:13:25;;;;;;;70.72;20.23;;;2.00;99.90;;;;;;4923902;29;20206;-61
2022/01/25 07:15:56;;;;;;;24.90;16.10;;;2.10;99.90;;;;;;4921651;29;20270;-61
2022/01/25 07:18:28;;;;;;;52.78;19.73;;;2.10;99.90;;;;;;4924888;29;20282;-61
2022/01/25 07:20:59;;;;;;;61.22;21.13;;;2.20;99.90;;;;;;4922504;29;20298;-61
2022/01/25 07:23:30;;;;;;;31.05;15.68;;;2.30;99.90;;;;;;4921641;29;20222;-61
2022/01/25 07:26:00;;;;;;;35.47;17.33;;;2.20;99.90;;;;;;4920712;29;20213;-62
2022/01/25 07:28:33;;;;;;;88.57;20.58;;;2.30;99.90;;;;;;4914273;29;20231;-61
2022/01/25 07:31:04;;;;;;;60.28;19.05;;;2.30;99.90;;;;;;4913966;29;20231;-61
2022/01/25 07:33:46;;;;;;;30.27;16.20;;;2.30;99.90;;;;;;4919613;29;20202;-62
2022/01/25 07:36:23;;;;;;;33.75;15.95;;;2.20;99.90;;;;;;4916030;29;20263;-61
2022/01/25 07:38:54;;;;;;;25.70;15.98;;;2.10;99.90;;;;;;4922240;29;20221;-61
2022/01/25 07:41:24;;;;;;;29.65;15.45;;;2.00;99.90;;;;;;4920337;29;20207;-61
2022/01/25 07:43:59;;;;;;;32.40;16.42;;;2.00;99.90;;;;;;4920023;29;20306;-61
2022/01/25 07:46:42;;;;;;;29.65;15.57;;;2.00;99.90;;;;;;4926597;29;20270;-62
2022/01/25 07:49:19;;;;;;;24.75;15.23;;;2.10;99.90;;;;;;4922783;29;20320;-62
2022/01/25 07:51:49;;;;;;;22.75;15.45;;;2.00;99.90;;;;;;4916044;29;20294;-62
2022/01/25 07:54:20;;;;;;;30.95;16.08;;;2.00;99.90;;;;;;4926303;29;20191;-61
2022/01/25 07:56:51;;;;;;;25.67;15.27;;;2.00;99.90;;;;;;4920074;29;20199;-61
2022/01/25 07:59:22;;;;;;;22.75;15.50;;;1.90;99.90;;;;;;4926467;29;20235;-61
2022/01/25 08:01:53;;;;;;;18.65;14.02;;;1.90;99.90;;;;;;4915788;29;20207;-61
2022/01/25 08:04:30;;;;;;;21.60;15.68;;;1.90;99.90;;;;;;4914413;29;20674;-61
2022/01/25 08:07:01;;;;;;;18.65;13.82;;;1.90;99.90;;;;;;4913806;29;20323;-62
2022/01/25 08:09:40;;;;;;;21.08;13.70;;;1.90;99.90;;;;;;4921097;29;20281;-62
2022/01/25 08:12:12;;;;;;;19.10;15.00;;;1.90;99.90;;;;;;4911917;29;20225;-65
2022/01/25 08:14:53;;;;;;;21.27;16.35;;;1.90;99.90;;;;;;4925551;29;20647;-64
2022/01/25 08:17:26;;;;;;;19.85;14.48;;;1.90;99.90;;;;;;4914846;29;20224;-63
2022/01/25 08:20:01;;;;;;;21.25;13.88;;;1.90;99.90;;;;;;4923674;29;20508;-61
2022/01/25 08:22:33;;;;;;;18.85;13.50;;;1.80;99.90;;;;;;4914660;29;20230;-61
2022/01/25 08:25:12;;;;;;;19.95;14.75;;;1.80;99.90;;;;;;4918756;29;20261;-61
2022/01/25 08:27:52;;;;;;;19.40;13.75;;;1.90;99.90;;;;;;4914214;29;20220;-61
2022/01/25 08:30:25;;;;;;;21.17;13.82;;;1.80;99.90;;;;;;4926332;29;20226;-61
2022/01/25 08:32:55;;;;;;;17.40;13.18;;;1.80;99.90;;;;;;4918206;29;20210;-61
2022/01/25 08:35:39;;;;;;;21.02;13.27;;;1.80;99.90;;;;;;4922402;29;20246;-61
2022/01/25 08:38:23;;;;;;;16.92;12.85;;;1.80;99.90;;;;;;4911427;29;20223;-61
2022/01/25 08:41:07;;;;;;;16.65;11.95;;;1.70;99.90;;;;;;4922580;29;20206;-61
2022/01/25 08:43:37;;;;;;;16.80;11.75;;;1.70;99.90;;;;;;4918204;29;20617;-62
2022/01/25 08:46:12;;;;;;;16.17;12.55;;;1.70;99.90;;;;;;4921260;29;20239;-61
2022/01/25 08:48:45;;;;;;;17.63;12.32;;;1.70;99.90;;;;;;4925945;29;20614;-61
2022/01/25 08:51:23;;;;;;;14.23;11.85;;;1.80;99.90;;;;;;4926187;29;20306;-61
2022/01/25 08:53:57;;;;;;;17.35;12.82;;;1.80;99.90;;;;;;4922684;29;20241;-61
2022/01/25 08:56:32;;;;;;;19.40;13.75;;;1.80;99.90;;;;;;4922053;29;20215;-61
2022/01/25 08:59:05;;;;;;;21.00;15.38;;;1.90;99.90;;;;;;4926030;29;20191;-61
2022/01/25 09:01:36;;;;;;;18.58;14.43;;;1.90;99.90;;;;;;4919166;29;20203;-61
2022/01/25 09:04:10;;;;;;;17.63;13.30;;;1.90;99.90;;;;;;4925075;29;20278;-61
2022/01/25 09:06:46;;;;;;;17.90;13.35;;;1.80;99.90;;;;;;4921880;29;20556;-61
2022/01/25 09:09:17;;;;;;;21.05;13.55;;;1.80;99.90;;;;;;4917459;29;20206;-61
2022/01/25 09:11:47;;;;;;;18.73;15.35;;;1.70;99.90;;;;;;4924874;29;20218;-61
2022/01/25 09:14:19;;;;;;;21.42;15.52;;;1.70;99.90;;;;;;4924656;29;20191;-61
2022/01/25 09:16:52;;;;;;;18.33;13.85;;;1.70;99.90;;;;;;4925886;29;20198;-61
2022/01/25 09:19:23;;;;;;;23.15;16.73;;;1.70;99.90;;;;;;4916391;29;20222;-61
2022/01/25 09:21:58;;;;;;;21.45;15.27;;;1.70;99.90;;;;;;4925093;29;20211;-61
2022/01/25 09:24:29;;;;;;;21.50;14.90;;;1.60;99.90;;;;;;4923627;29;20214;-61
2022/01/25 09:27:04;;;;;;;22.00;14.88;;;1.60;99.90;;;;;;4922437;29;20210;-61
2022/01/25 09:29:36;;;;;;;21.75;15.07;;;1.50;99.90;;;;;;4922518;29;20234;-61
2022/01/25 09:32:12;;;;;;;18.83;14.30;;;1.50;99.90;;;;;;4913469;29;20195;-61
2022/01/25 09:34:43;;;;;;;21.85;14.70;;;1.60;99.90;;;;;;4921726;29;20343;-61
2022/01/25 09:37:16;;;;;;;20.63;14.90;;;1.50;99.90;;;;;;4923279;29;20278;-61
2022/01/25 09:39:47;;;;;;;18.27;13.45;;;1.50;99.90;;;;;;4920804;29;20207;-61
2022/01/25 09:42:29;;;;;;;18.05;13.50;;;1.50;99.90;;;;;;4916386;29;20230;-61
2022/01/25 09:45:00;;;;;;;15.38;11.80;;;1.50;99.90;;;;;;4912981;29;20237;-61
2022/01/25 09:47:33;;;;;;;15.98;12.63;;;1.40;99.90;;;;;;4917655;29;20206;-61
2022/01/25 09:50:04;;;;;;;18.50;12.38;;;1.50;99.90;;;;;;4917332;29;20231;-61
2022/01/25 09:52:42;;;;;;;15.05;11.70;;;1.40;99.90;;;;;;4911098;29;20237;-61
2022/01/25 09:55:16;;;;;;;16.17;13.30;;;1.40;99.90;;;;;;4915454;29;20210;-61
2022/01/25 09:57:48;;;;;;;17.40;11.60;;;1.40;99.90;;;;;;4914279;29;20206;-61
2022/01/25 10:00:22;;;;;;;13.50;10.80;;;1.30;99.90;;;;;;4917958;29;20227;-61
2022/01/25 10:03:02;;;;;;;12.82;10.32;;;1.40;99.90;;;;;;4918440;29;20203;-61
2022/01/25 10:05:37;;;;;;;14.52;10.38;;;1.30;99.90;;;;;;4914748;29;20215;-61
2022/01/25 10:08:11;;;;;;;14.13;11.10;;;1.30;99.90;;;;;;4925287;29;20271;-60
2022/01/25 10:10:45;;;;;;;12.65;9.35;;;1.30;99.90;;;;;;4922757;29;20220;-60
2022/01/25 10:13:20;;;;;;;11.57;9.43;;;1.30;99.90;;;;;;4920441;29;20229;-61
2022/01/25 10:15:52;;;;;;;14.02;10.52;;;1.30;99.90;;;;;;4918072;29;20214;-60
2022/01/25 10:18:24;;;;;;;12.68;10.30;;;1.20;99.90;;;;;;4924289;29;20242;-61
2022/01/25 10:20:55;;;;;;;13.27;9.77;;;1.20;99.90;;;;;;4921663;29;20259;-60
2022/01/25 10:23:31;;;;;;;13.57;10.65;;;1.10;99.90;;;;;;4908153;29;20371;-61
2022/01/25 10:26:04;;;;;;;14.90;11.60;;;1.20;99.90;;;;;;4913882;29;20246;-60
2022/01/25 10:28:35;;;;;;;16.05;10.25;;;1.20;99.90;;;;;;4922314;29;20206;-60
2022/01/25 10:31:07;;;;;;;13.40;8.70;;;1.20;99.90;;;;;;4923974;29;20211;-61
2022/01/25 10:33:47;;;;;;;12.48;9.90;;;1.20;99.90;;;;;;4914254;29;20206;-61
2022/01/25 10:36:45;;;;;;;14.00;10.50;;;1.20;99.90;;;;;;4917002;29;20291;-61
2022/01/25 10:39:24;;;;;;;11.63;8.95;;;1.20;99.90;;;;;;4914324;29;20333;-61
2022/01/25 10:42:03;;;;;;;11.18;8.73;;;1.20;99.90;;;;;;4921413;29;20218;-61
2022/01/25 10:44:51;;;;;;;14.43;9.90;;;1.20;99.90;;;;;;4922768;29;20295;-61
2022/01/25 10:47:40;;;;;;;12.75;8.98;;;1.10;99.90;;;;;;4923501;29;20269;-61
2022/01/25 10:50:16;;;;;;;11.40;8.50;;;1.20;99.90;;;;;;4921667;29;20230;-61
2022/01/25 10:52:48;;;;;;;11.00;9.40;;;1.10;99.90;;;;;;4924155;29;20210;-61
2022/01/25 10:55:21;;;;;;;13.70;11.05;;;1.10;99.90;;;;;;4920597;29;20708;-62
2022/01/25 10:57:58;;;;;;;10.02;8.48;;;1.10;99.90;;;;;;4916552;29;20209;-62
2022/01/25 11:00:34;;;;;;;13.95;8.93;;;1.00;99.90;;;;;;4928790;29;20201;-63
2022/01/25 11:03:06;;;;;;;12.95;9.60;;;1.10;99.90;;;;;;4928196;29;20195;-61
2022/01/25 11:05:41;;;;;;;12.15;8.75;;;1.10;99.90;;;;;;4928118;29;20262;-61
2022/01/25 11:08:20;;;;;;;12.35;9.43;;;1.00;99.90;;;;;;4915655;29;20222;-61
2022/01/25 11:10:57;;;;;;;14.18;9.15;;;1.00;99.90;;;;;;4922148;29;20207;-61
2022/01/25 11:13:39;;;;;;;12.55;9.55;;;1.00;99.90;;;;;;4919197;29;20221;-61
2022/01/25 11:16:13;;;;;;;12.02;8.80;;;1.10;99.90;;;;;;4924621;29;20215;-61
2022/01/25 11:18:44;;;;;;;12.20;8.57;;;1.10;99.90;;;;;;4928285;29;20276;-61
2022/01/25 11:21:15;;;;;;;13.40;9.98;;;1.10;99.90;;;;;;4925294;29;20286;-61
2022/01/25 11:23:46;;;;;;;13.15;9.13;;;1.00;99.90;;;;;;4923998;29;20203;-62
2022/01/25 11:26:19;;;;;;;11.05;8.38;;;1.10;99.90;;;;;;4921537;29;20249;-61
2022/01/25 11:28:50;;;;;;;11.80;8.93;;;1.10;99.90;;;;;;4923590;29;20206;-61
2022/01/25 11:31:23;;;;;;;12.57;9.70;;;1.10;99.90;;;;;;4922908;29;20203;-61
2022/01/25 11:33:57;;;;;;;12.45;8.88;;;1.10;99.90;;;;;;4922300;29;20210;-61
2022/01/25 11:36:28;;;;;;;14.00;9.45;;;1.20;99.90;;;;;;4919474;29;20225;-61
2022/01/25 11:38:58;;;;;;;12.20;8.88;;;1.20;99.90;;;;;;4919876;29;20210;-61
2022/01/25 11:41:31;;;;;;;11.27;8.00;;;1.10;99.90;;;;;;4922149;29;20207;-61
2022/01/25 11:44:10;;;;;;;12.60;9.18;;;1.10;99.90;;;;;;4922525;29;20213;-61
2022/01/25 11:46:44;;;;;;;13.40;10.13;;;1.10;99.90;;;;;;4925497;29;20298;-61
2022/01/25 11:49:17;;;;;;;12.88;8.65;;;1.00;99.90;;;;;;4920242;29;20286;-62
2022/01/25 11:52:04;;;;;;;12.43;8.70;;;1.00;99.90;;;;;;4919741;29;20226;-61
2022/01/25 11:54:37;;;;;;;13.07;9.20;;;0.90;99.90;;;;;;4922553;29;20210;-61
2022/01/25 11:57:14;;;;;;;13.77;8.73;;;0.90;99.90;;;;;;4928131;29;20225;-61
2022/01/25 11:59:52;;;;;;;12.02;8.80;;;0.80;99.90;;;;;;4915727;29;20188;-61
2022/01/25 12:02:44;;;;;;;10.68;8.05;;;0.80;99.90;;;;;;4925033;29;20253;-61
2022/01/25 12:05:17;;;;;;;11.82;8.70;;;0.90;99.90;;;;;;4925476;29;20207;-60
2022/01/25 12:08:06;;;;;;;10.23;8.52;;;0.80;99.90;;;;;;4914908;29;20230;-61
2022/01/25 12:10:41;;;;;;;13.82;9.32;;;0.70;99.90;;;;;;4912335;29;20207;-61
2022/01/25 12:13:23;;;;;;;13.32;8.10;;;0.70;99.90;;;;;;4924321;29;20202;-61
2022/01/25 12:16:26;;;;;;;11.25;9.20;;;0.60;99.90;;;;;;4923134;29;20223;-61
2022/01/25 12:19:00;;;;;;;10.82;8.68;;;0.60;99.90;;;;;;4916948;29;20263;-61
2022/01/25 12:22:11;;;;;;;10.68;8.68;;;0.70;99.90;;;;;;4926192;29;20289;-61
2022/01/25 12:25:03;;;;;;;12.23;8.50;;;0.70;99.90;;;;;;4915743;29;20270;-61
2022/01/25 12:27:42;;;;;;;14.00;9.00;;;0.60;99.90;;;;;;4922175;29;20223;-62
2022/01/25 12:30:17;;;;;;;10.27;8.32;;;0.60;99.90;;;;;;4926472;29;20316;-61
2022/01/25 12:33:00;;;;;;;12.27;8.38;;;0.60;99.90;;;;;;4918020;29;20202;-61
2022/01/25 12:35:43;;;;;;;11.73;7.68;;;0.60;99.90;;;;;;4914916;29;20230;-61
2022/01/25 12:38:17;;;;;;;9.38;8.48;;;0.60;99.90;;;;;;4924069;29;20275;-61
2022/01/25 12:41:02;;;;;;;11.93;8.40;;;0.60;99.90;;;;;;4914285;29;20204;-62
2022/01/25 12:43:39;;;;;;;13.40;8.05;;;0.60;99.90;;;;;;4922319;29;20587;-61
2022/01/25 12:46:18;;;;;;;85.18;25.70;;;0.50;99.90;;;;;;4924103;29;20218;-61
2022/01/25 12:48:51;;;;;;;292.70;61.58;;;0.50;99.90;;;;;;4926696;29;20749;-62
2022/01/25 12:51:28;;;;;;;13.20;9.05;;;0.60;99.90;;;;;;4927677;29;20230;-61
2022/01/25 12:54:02;;;;;;;14.65;9.18;;;0.70;99.90;;;;;;4917893;29;20275;-62
2022/01/25 12:56:43;;;;;;;13.38;9.80;;;0.70;99.90;;;;;;4925333;29;20632;-61
2022/01/25 12:59:16;;;;;;;10.98;7.82;;;0.60;99.90;;;;;;4923263;29;20228;-61
2022/01/25 13:01:50;;;;;;;13.23;9.38;;;0.70;99.90;;;;;;4916634;29;20213;-61
2022/01/25 13:04:21;;;;;;;10.48;8.25;;;0.60;99.90;;;;;;4917628;29;20203;-61
2022/01/25 13:06:53;;;;;;;11.55;9.10;;;0.60;99.90;;;;;;4916298;29;20226;-61
2022/01/25 13:09:28;;;;;;;14.07;8.95;;;0.60;99.90;;;;;;4923989;29;20218;-61
2022/01/25 13:12:13;;;;;;;14.27;10.70;;;0.60;99.90;;;;;;4919613;29;20222;-61
2022/01/25 13:14:50;;;;;;;14.35;10.10;;;0.60;99.90;;;;;;4919591;29;20215;-61
2022/01/25 13:17:25;;;;;;;16.40;10.93;;;0.60;99.90;;;;;;4924785;29;20277;-61
2022/01/25 13:20:00;;;;;;;15.88;11.07;;;0.50;99.90;;;;;;4913366;29;20206;-61
2022/01/25 13:22:36;;;;;;;13.95;10.23;;;0.50;99.90;;;;;;4916344;29;20201;-61
2022/01/25 13:25:14;;;;;;;17.90;11.75;;;0.40;99.90;;;;;;4919898;29;20209;-61
2022/01/25 13:27:51;;;;;;;18.23;11.90;;;0.50;99.90;;;;;;4917879;29;20261;-61
2022/01/25 13:30:44;;;;;;;13.55;10.27;;;0.50;99.90;;;;;;4920571;29;20225;-61
2022/01/25 13:33:18;;;;;;;16.48;10.50;;;0.40;99.90;;;;;;4913654;29;20270;-61
2022/01/25 13:35:52;;;;;;;529.35;99.60;;;0.40;99.90;;;;;;4913276;29;20232;-61
2022/01/25 13:38:25;;;;;;;1999.90;524.30;;;0.50;99.90;;;;;;4918542;29;20219;-61
2022/01/25 13:41:01;;;;;;;14.40;10.25;;;0.40;99.90;;;;;;4916941;29;20242;-61
2022/01/25 13:46:23;;;;;;;15.15;10.93;;;0.30;99.90;;;;;;4922381;29;20290;-61
2022/01/25 13:48:59;;;;;;;12.68;9.73;;;0.30;99.90;;;;;;4918069;29;20279;-61
2022/01/25 13:51:31;;;;;;;16.05;11.05;;;0.30;99.90;;;;;;4924410;29;20221;-61
2022/01/25 13:54:03;;;;;;;13.82;10.27;;;0.30;99.90;;;;;;4920900;29;20203;-61
2022/01/25 13:56:36;;;;;;;14.27;10.10;;;0.20;99.90;;;;;;4924695;29;20272;-61
2022/01/25 13:59:08;;;;;;;13.70;9.63;;;0.20;99.90;;;;;;4918647;29;20262;-61
2022/01/25 14:01:41;;;;;;;13.07;9.68;;;0.20;99.90;;;;;;4924160;29;20628;-62
2022/01/25 14:04:20;;;;;;;12.23;9.38;;;0.20;99.90;;;;;;4920599;29;20226;-61
2022/01/25 14:06:54;;;;;;;11.20;9.02;;;0.20;99.90;;;;;;4919858;29;20274;-61
2022/01/25 14:09:31;;;;;;;15.13;10.68;;;0.20;99.90;;;;;;4925350;29;20275;-61
2022/01/25 14:23:26;;;;;;;382.63;73.28;;;0.10;99.90;;;;;;4916781;29;20195;-62
2022/01/25 14:26:05;;;;;;;281.63;50.42;;;0.20;99.90;;;;;;4924448;29;20195;-61
2022/01/25 14:28:41;;;;;;;628.05;107.57;;;0.30;99.90;;;;;;4915561;29;20236;-61
2022/01/25 14:31:20;;;;;;;14.32;11.20;;;0.30;99.90;;;;;;4919669;29;20211;-61
2022/01/25 14:33:55;;;;;;;16.20;10.05;;;0.30;99.90;;;;;;4917781;29;20403;-62
2022/01/25 14:36:30;;;;;;;16.80;10.35;;;0.30;99.90;;;;;;4925921;29;20217;-61
2022/01/25 14:39:02;;;;;;;16.70;10.57;;;0.30;99.90;;;;;;4927624;29;20265;-61
2022/01/25 14:41:36;;;;;;;12.43;10.38;;;0.20;99.90;;;;;;4927842;29;20202;-62
2022/01/25 14:44:09;;;;;;;16.00;11.20;;;0.20;99.90;;;;;;4919876;29;20195;-63
2022/01/25 14:46:43;;;;;;;16.58;10.48;;;0.30;99.90;;;;;;4922985;29;20203;-63
2022/01/25 14:49:19;;;;;;;15.05;10.20;;;0.30;99.90;;;;;;4916582;29;20238;-62
2022/01/25 14:51:53;;;;;;;15.25;10.43;;;0.30;99.90;;;;;;4926883;29;20279;-63
2022/01/25 14:54:26;;;;;;;15.75;10.45;;;0.30;99.90;;;;;;4924346;29;20229;-61